createdAt,value
2018-12-23T00:01:57.394Z,9.65
2018-12-23T00:06:01.393Z,9.64
2018-12-23T00:10:05.151Z,9.62
2018-12-23T00:14:08.735Z,9.57
2018-12-23T00:18:12.263Z,9.54
2018-12-23T00:22:15.822Z,9.54
2018-12-23T00:26:19.368Z,9.50
2018-12-23T00:30:23.213Z,9.49
2018-12-23T00:34:26.680Z,9.46
2018-12-23T00:38:30.231Z,9.41
2018-12-23T00:42:33.729Z,9.36
2018-12-23T00:46:37.215Z,9.34
2018-12-23T00:50:40.848Z,9.34
2018-12-23T00:54:44.440Z,9.32
2018-12-23T00:58:48.104Z,9.30
2018-12-23T01:02:51.719Z,9.28
2018-12-23T01:06:55.296Z,9.29
2018-12-23T01:10:58.795Z,9.29
2018-12-23T01:15:02.256Z,9.26
2018-12-23T01:19:05.860Z,9.28
2018-12-23T01:23:09.304Z,9.29
2018-12-23T01:27:12.885Z,9.28
2018-12-23T01:31:16.347Z,9.30
2018-12-23T01:35:19.868Z,9.30
2018-12-23T01:39:23.479Z,9.32
2018-12-23T01:43:27.054Z,9.32
2018-12-23T01:47:30.531Z,9.31
2018-12-23T01:51:34.008Z,9.31
2018-12-23T01:55:37.497Z,9.33
2018-12-23T01:59:41.006Z,9.36
2018-12-23T02:03:44.722Z,9.37
2018-12-23T02:07:48.213Z,9.36
2018-12-23T02:11:51.700Z,9.39
2018-12-23T02:15:55.215Z,9.43
2018-12-23T02:19:58.875Z,9.42
2018-12-23T02:24:02.370Z,9.43
2018-12-23T02:28:05.856Z,9.46
2018-12-23T02:32:09.500Z,9.49
2018-12-23T02:36:12.962Z,9.48
2018-12-23T02:40:16.551Z,9.46
2018-12-23T02:44:20.656Z,9.45
2018-12-23T02:48:24.367Z,9.41
2018-12-23T02:52:27.974Z,9.41
2018-12-23T02:56:31.633Z,9.39
2018-12-23T03:00:35.102Z,9.37
2018-12-23T03:04:38.598Z,9.36
2018-12-23T03:08:42.260Z,9.32
2018-12-23T03:12:45.974Z,9.29
2018-12-23T03:16:49.518Z,9.27
2018-12-23T03:20:53.032Z,9.25
2018-12-23T03:24:56.520Z,9.25
2018-12-23T03:29:00.005Z,9.24
2018-12-23T03:33:03.577Z,9.21
2018-12-23T03:37:07.036Z,9.16
2018-12-23T03:41:10.564Z,9.14
2018-12-23T03:45:14.014Z,9.10
2018-12-23T03:49:17.943Z,9.08
2018-12-23T03:53:21.516Z,9.04
2018-12-23T03:57:25.092Z,9.01
2018-12-23T04:01:28.547Z,9.03
2018-12-23T04:05:32.190Z,9.04
2018-12-23T04:09:35.737Z,9.03
2018-12-23T04:13:39.170Z,9.00
2018-12-23T04:17:42.624Z,8.98
2018-12-23T04:22:33.759Z,9.04
2018-12-23T04:26:38.466Z,8.95
2018-12-23T04:30:43.207Z,8.94
2018-12-23T04:34:47.916Z,8.91
2018-12-23T04:38:52.609Z,8.90
2018-12-23T04:42:57.352Z,8.89
2018-12-23T04:47:02.009Z,8.86
2018-12-23T04:51:06.720Z,8.83
2018-12-23T04:55:11.649Z,8.81
2018-12-23T04:59:16.386Z,8.82
2018-12-23T05:03:21.026Z,8.81
2018-12-23T05:07:25.743Z,8.81
2018-12-23T05:11:30.540Z,8.79
2018-12-23T05:15:35.603Z,8.78
2018-12-23T05:19:40.326Z,8.79
2018-12-23T05:23:45.001Z,8.79
2018-12-23T05:27:49.722Z,8.79
2018-12-23T05:31:54.431Z,8.81
2018-12-23T05:35:59.164Z,8.84
2018-12-23T05:40:03.818Z,8.80
2018-12-23T05:44:08.527Z,8.81
2018-12-23T05:48:13.231Z,8.79
2018-12-23T05:52:17.941Z,8.76
2018-12-23T05:56:22.652Z,8.71
2018-12-23T06:00:27.295Z,8.69
2018-12-23T06:04:31.978Z,8.64
2018-12-23T06:08:36.662Z,8.61
2018-12-23T06:12:41.372Z,8.58
2018-12-23T06:16:46.049Z,8.54
2018-12-23T06:20:50.716Z,8.53
2018-12-23T06:24:55.437Z,8.51
2018-12-23T06:29:00.201Z,8.51
2018-12-23T06:33:04.932Z,8.50
2018-12-23T06:37:10.427Z,8.54
2018-12-23T06:41:16.130Z,8.52
2018-12-23T06:45:20.802Z,8.52
2018-12-23T06:49:25.523Z,8.52
2018-12-23T06:53:30.174Z,8.55
2018-12-23T06:57:34.913Z,8.56
2018-12-23T07:01:39.646Z,8.57
2018-12-23T07:05:44.683Z,8.57
2018-12-23T07:09:49.428Z,8.60
2018-12-23T07:13:54.119Z,8.60
2018-12-23T07:17:58.774Z,8.63
2018-12-23T07:22:03.537Z,8.63
2018-12-23T07:26:08.239Z,8.63
2018-12-23T07:30:12.934Z,8.65
2018-12-23T07:34:17.650Z,8.66
2018-12-23T07:38:22.359Z,8.66
2018-12-23T07:42:27.076Z,8.67
2018-12-23T07:46:31.785Z,8.69
2018-12-23T07:50:36.505Z,8.76
2018-12-23T07:54:41.214Z,8.79
2018-12-23T07:58:45.909Z,8.84
2018-12-23T08:02:50.706Z,8.86
2018-12-23T08:06:55.412Z,8.90
2018-12-23T08:11:00.114Z,8.92
2018-12-23T08:15:04.772Z,8.95
2018-12-23T08:19:09.464Z,9.02
2018-12-23T08:23:14.170Z,9.08
2018-12-23T08:27:18.862Z,9.12
2018-12-23T08:31:23.583Z,9.17
2018-12-23T08:35:28.216Z,9.24
2018-12-23T08:39:32.924Z,9.30
2018-12-23T08:43:37.639Z,9.34
2018-12-23T08:47:42.389Z,9.39
2018-12-23T08:51:47.072Z,9.47
2018-12-23T08:55:52.208Z,9.53
2018-12-23T08:59:56.918Z,9.57
2018-12-23T09:04:01.661Z,9.60
2018-12-23T09:12:43.097Z,9.74
2018-12-23T09:16:47.855Z,9.83
2018-12-23T09:20:52.511Z,9.87
2018-12-23T09:24:57.248Z,9.92
2018-12-23T09:29:01.965Z,9.98
2018-12-23T09:33:06.663Z,10.06
2018-12-23T09:37:11.380Z,10.09
2018-12-23T09:41:16.093Z,10.16
2018-12-23T09:45:20.777Z,10.18
2018-12-23T09:49:25.579Z,10.25
2018-12-23T09:53:30.256Z,10.27
2018-12-23T09:57:35.035Z,10.31
2018-12-23T10:01:39.752Z,10.33
2018-12-23T10:05:44.429Z,10.34
2018-12-23T10:09:49.175Z,10.34
2018-12-23T10:13:53.914Z,10.34
2018-12-23T10:17:58.626Z,10.33
2018-12-23T10:22:03.318Z,10.33
2018-12-23T10:26:08.023Z,10.35
2018-12-23T10:30:12.719Z,10.36
2018-12-23T10:34:17.420Z,10.38
2018-12-23T10:38:42.417Z,10.36
2018-12-23T10:42:47.207Z,10.37
2018-12-23T10:46:51.923Z,10.38
2018-12-23T10:50:56.577Z,10.42
2018-12-23T10:55:01.268Z,10.40
2018-12-23T10:59:06.423Z,10.40
2018-12-23T11:03:11.126Z,10.38
2018-12-23T11:07:15.826Z,10.36
2018-12-23T11:11:20.587Z,10.35
2018-12-23T11:15:25.326Z,10.36
2018-12-23T11:19:30.048Z,10.31
2018-12-23T11:23:35.219Z,10.33
2018-12-23T11:27:39.911Z,10.30
2018-12-23T11:31:44.605Z,10.30
2018-12-23T11:35:49.350Z,10.31
2018-12-23T11:39:54.062Z,10.34
2018-12-23T11:43:58.734Z,10.36
2018-12-23T11:48:03.436Z,10.37
2018-12-23T11:52:08.140Z,10.39
2018-12-23T11:56:12.861Z,10.39
2018-12-23T12:00:17.567Z,10.39
2018-12-23T12:04:22.279Z,10.41
2018-12-23T12:08:27.157Z,10.43
2018-12-23T12:12:31.851Z,10.48
2018-12-23T12:16:36.583Z,10.52
2018-12-23T12:20:41.289Z,10.53
2018-12-23T12:24:46.025Z,10.54
2018-12-23T12:28:50.738Z,10.54
2018-12-23T12:32:55.384Z,10.55
2018-12-23T12:37:00.128Z,10.55
2018-12-23T12:41:04.862Z,10.61
2018-12-23T12:45:09.614Z,10.63
2018-12-23T12:49:14.312Z,10.63
2018-12-23T12:53:18.973Z,10.64
2018-12-23T12:57:23.780Z,10.66
2018-12-23T13:01:28.466Z,10.68
2018-12-23T13:05:33.187Z,10.70
2018-12-23T13:09:37.838Z,10.72
2018-12-23T13:13:42.542Z,10.75
2018-12-23T13:17:47.448Z,10.78
2018-12-23T13:21:52.212Z,10.80
2018-12-23T13:25:56.927Z,10.77
2018-12-23T13:30:01.683Z,10.75
2018-12-23T13:34:06.415Z,10.72
2018-12-23T13:38:11.076Z,10.71
2018-12-23T13:42:53.622Z,10.67
2018-12-23T13:47:36.427Z,10.66
2018-12-23T13:52:18.948Z,10.63
2018-12-23T13:57:01.491Z,10.60
2018-12-23T14:01:31.232Z,10.56
2018-12-23T14:06:13.721Z,10.59
2018-12-23T14:10:56.276Z,10.61
2018-12-23T14:15:00.952Z,10.60
2018-12-23T14:19:05.703Z,10.58
2018-12-23T14:23:10.398Z,10.51
2018-12-23T14:27:15.224Z,10.48
2018-12-23T14:31:19.911Z,10.46
2018-12-23T14:35:24.912Z,10.43
2018-12-23T14:39:29.723Z,10.41
2018-12-23T14:43:34.433Z,10.39
2018-12-23T14:47:40.403Z,10.35
2018-12-23T14:51:45.622Z,10.35
2018-12-23T14:55:50.310Z,10.35
2018-12-23T14:59:55.042Z,10.36
2018-12-23T15:03:59.733Z,10.34
2018-12-23T15:08:04.476Z,10.32
2018-12-23T15:12:09.209Z,10.30
2018-12-23T15:16:13.874Z,10.31
2018-12-23T15:20:18.587Z,10.29
2018-12-23T15:24:23.339Z,10.29
2018-12-23T15:28:27.993Z,10.30
2018-12-23T15:32:32.737Z,10.32
2018-12-23T15:36:37.489Z,10.30
2018-12-23T15:40:42.245Z,10.28
2018-12-23T15:44:47.281Z,10.27
2018-12-23T15:48:52.198Z,10.25
2018-12-23T15:52:56.936Z,10.25
2018-12-23T15:57:01.658Z,10.27
2018-12-23T16:01:06.393Z,10.27
2018-12-23T16:05:11.111Z,10.27
2018-12-23T16:09:15.793Z,10.26
2018-12-23T16:13:20.506Z,10.26
2018-12-23T16:17:25.223Z,10.26
2018-12-23T16:21:29.888Z,10.28
2018-12-23T16:25:34.622Z,10.29
2018-12-23T16:29:39.305Z,10.28
2018-12-23T16:33:44.097Z,10.29
2018-12-23T16:37:49.111Z,10.29
2018-12-23T16:41:53.801Z,10.29
2018-12-23T16:45:58.532Z,10.30
2018-12-23T16:50:03.717Z,10.31
2018-12-23T16:54:08.355Z,10.30
2018-12-23T16:58:13.092Z,10.30
2018-12-23T17:02:17.786Z,10.30
2018-12-23T17:06:22.518Z,10.31
2018-12-23T17:10:27.254Z,10.32
2018-12-23T17:14:31.999Z,10.33
2018-12-23T17:18:36.711Z,10.35
2018-12-23T17:22:41.415Z,10.35
2018-12-23T17:26:46.149Z,10.35
2018-12-23T17:30:51.000Z,10.34
2018-12-23T17:34:55.672Z,10.32
2018-12-23T17:39:00.400Z,10.32
2018-12-23T17:43:05.130Z,10.32
2018-12-23T17:47:09.852Z,10.33
2018-12-23T17:51:14.612Z,10.33
2018-12-23T17:55:19.348Z,10.32
2018-12-23T17:59:24.098Z,10.33
2018-12-23T18:03:28.872Z,10.32
2018-12-23T18:07:33.611Z,10.34
2018-12-23T18:11:38.348Z,10.34
2018-12-23T18:15:43.140Z,10.34
2018-12-23T18:19:47.878Z,10.33
2018-12-23T18:23:52.618Z,10.32
2018-12-23T18:27:57.296Z,10.30
2018-12-23T18:32:02.021Z,10.26
2018-12-23T18:36:06.745Z,10.27
2018-12-23T18:40:11.525Z,10.24
2018-12-23T18:44:16.306Z,10.20
2018-12-23T18:48:20.979Z,10.17
2018-12-23T18:52:25.728Z,10.16
2018-12-23T18:57:06.911Z,10.11
2018-12-23T19:01:11.956Z,10.09
2018-12-23T19:05:16.733Z,10.04
2018-12-23T19:09:59.299Z,9.98
2018-12-23T19:14:41.834Z,9.92
2018-12-23T19:19:24.392Z,9.84
2018-12-23T19:23:55.310Z,9.73
2018-12-23T19:28:32.250Z,9.65
2018-12-23T19:33:18.153Z,9.57
2018-12-23T19:38:00.779Z,9.53
2018-12-23T19:42:43.368Z,9.52
2018-12-23T19:47:25.896Z,9.49
2018-12-23T19:52:08.476Z,9.46
2018-12-23T19:56:51.026Z,9.43
2018-12-23T20:01:18.878Z,9.41
2018-12-23T20:06:01.476Z,9.37
2018-12-23T20:10:44.007Z,9.29
2018-12-23T20:15:26.602Z,9.25
2018-12-23T20:19:53.716Z,9.17
2018-12-23T20:24:36.297Z,9.14
2018-12-23T20:29:18.871Z,9.09
2018-12-23T20:34:02.626Z,9.05
2018-12-23T20:38:34.800Z,8.99
2018-12-23T20:43:17.372Z,8.93
2018-12-23T20:48:00.056Z,8.90
2018-12-23T20:52:33.806Z,8.87
2018-12-23T20:57:10.636Z,8.84
2018-12-23T21:01:53.244Z,8.83
2018-12-23T21:06:35.844Z,8.82
2018-12-23T21:11:18.427Z,8.82
2018-12-23T21:16:01.313Z,8.84
2018-12-23T21:20:44.607Z,8.84
2018-12-23T21:25:27.250Z,8.85
2018-12-23T21:30:09.851Z,8.84
2018-12-23T21:34:52.451Z,8.84
2018-12-23T21:39:34.923Z,8.78
2018-12-23T21:44:17.456Z,8.72
2018-12-23T21:49:00.044Z,8.68
2018-12-23T21:53:42.599Z,8.62
2018-12-23T21:57:57.593Z,8.58
2018-12-23T22:02:40.082Z,8.54
2018-12-23T22:07:22.621Z,8.48
2018-12-23T22:11:50.970Z,8.47
2018-12-23T22:20:39.781Z,8.42
2018-12-23T22:24:44.487Z,8.35
2018-12-23T22:28:49.229Z,8.31
2018-12-23T22:32:53.906Z,8.25
2018-12-23T22:36:58.658Z,8.21
2018-12-23T22:41:07.466Z,8.18
2018-12-23T22:45:12.146Z,8.18
2018-12-23T22:49:16.862Z,8.18
2018-12-23T22:53:21.577Z,8.21
2018-12-23T22:57:26.297Z,8.24
2018-12-23T23:01:30.973Z,8.25
2018-12-23T23:05:35.712Z,8.23
2018-12-23T23:09:40.422Z,8.24
2018-12-23T23:13:45.090Z,8.27
2018-12-23T23:17:49.828Z,8.24
2018-12-23T23:21:54.543Z,8.20
2018-12-23T23:25:59.291Z,8.17
2018-12-23T23:34:47.891Z,8.09
2018-12-23T23:43:16.191Z,8.12
2018-12-23T23:47:20.876Z,8.12
2018-12-23T23:51:25.588Z,8.11
2018-12-23T23:55:30.307Z,8.13
2018-12-23T23:59:34.959Z,8.15
